Time;durP1;ratioP1;P1;durP2;ratioP2;P2;SDS_P1;SDS_P2;PMS_P1;PMS_P2;Temp;Humidity;BMP_temperature;BMP_pressure;BME280_temperature;BME280_humidity;BME280_pressure;Samples;Min_cycle;Max_cycle;Signal;HPM_P1;HPM_P2
2022/03/22 00:01:29;;;;;;;;;;;10.80;99.90;;;;;;5072996;28;19969;-80
2022/03/22 00:03:54;;;;;;;;;;;10.80;99.90;;;;;;5086206;28;19912;-80
2022/03/22 00:06:20;;;;;;;;;;;10.80;99.90;;;;;;5085631;28;19916;-81
2022/03/22 00:08:45;;;;;;;;;;;10.80;99.90;;;;;;5084890;28;20331;-80
2022/03/22 00:11:11;;;;;;;;;;;10.70;99.90;;;;;;5084823;28;19935;-79
2022/03/22 00:13:37;;;;;;;;;;;10.60;99.90;;;;;;5076937;28;20304;-80
2022/03/22 00:16:03;;;;;;;;;;;10.60;99.90;;;;;;5069457;28;20011;-80
2022/03/22 00:18:29;;;;;;;;;;;10.50;99.90;;;;;;5074067;28;19912;-81
2022/03/22 00:20:56;;;;;;;;;;;10.50;99.90;;;;;;5072141;28;20293;-80
2022/03/22 00:23:22;;;;;;;;;;;10.40;99.90;;;;;;5069624;28;20360;-79
2022/03/22 00:25:47;;;;;;;;;;;10.40;99.90;;;;;;5073319;28;19912;-80
2022/03/22 00:28:13;;;;;;;;;;;10.40;99.90;;;;;;5074055;28;19966;-80
2022/03/22 00:30:39;;;;;;;;;;;10.40;99.90;;;;;;5075249;28;19912;-78
2022/03/22 00:33:05;;;;;;;;;;;10.30;99.90;;;;;;5071836;28;19912;-79
2022/03/22 00:35:33;;;;;;;;;;;10.30;99.90;;;;;;5070748;28;19918;-79
2022/03/22 00:37:58;;;;;;;;;;;10.30;99.90;;;;;;5069936;28;19912;-80
2022/03/22 00:40:25;;;;;;;;;;;10.20;99.90;;;;;;5070187;28;19961;-80
2022/03/22 00:42:52;;;;;;;;;;;10.30;99.90;;;;;;5070600;28;20348;-80
2022/03/22 00:45:18;;;;;;;;;;;10.30;99.90;;;;;;5074002;28;20434;-80
2022/03/22 00:47:44;;;;;;;;;;;10.20;99.90;;;;;;5072792;28;19917;-80
2022/03/22 00:50:10;;;;;;;;;;;10.20;99.90;;;;;;5070636;28;19916;-81
2022/03/22 00:52:36;;;;;;;;;;;10.20;99.90;;;;;;5072863;28;19916;-80
2022/03/22 00:55:05;;;;;;;;;;;10.10;99.90;;;;;;5072846;28;21656;-80
2022/03/22 00:57:31;;;;;;;;;;;9.90;99.90;;;;;;5072985;28;19913;-80
2022/03/22 01:00:04;;;;;;;;;;;9.90;99.90;;;;;;5072739;28;19919;-79
2022/03/22 01:02:34;;;;;;;;;;;9.90;99.90;;;;;;5070380;28;19921;-80
2022/03/22 01:05:01;;;;;;;;;;;9.80;99.90;;;;;;5072503;28;19913;-81
2022/03/22 01:07:27;;;;;;;;;;;9.80;99.90;;;;;;5073020;28;19912;-80
2022/03/22 01:09:53;;;;;;;;;;;9.80;99.90;;;;;;5072360;28;20006;-80
2022/03/22 01:12:18;;;;;;;;;;;9.80;99.90;;;;;;5070130;28;19956;-79
2022/03/22 01:14:44;;;;;;;;;;;9.80;99.90;;;;;;5072437;28;19999;-80
2022/03/22 01:17:09;;;;;;;;;;;9.80;99.90;;;;;;5071107;28;19952;-80
2022/03/22 01:19:35;;;;;;;;;;;9.80;99.90;;;;;;5068489;28;19916;-79
2022/03/22 01:22:01;;;;;;;;;;;9.80;99.90;;;;;;5070473;28;20316;-79
2022/03/22 01:24:27;;;;;;;;;;;9.80;99.90;;;;;;5068205;28;19920;-79
2022/03/22 01:26:52;;;;;;;;;;;9.80;99.90;;;;;;5070496;28;19912;-81
2022/03/22 01:29:18;;;;;;;;;;;9.80;99.90;;;;;;5071229;28;19912;-79
2022/03/22 01:31:44;;;;;;;;;;;9.90;99.90;;;;;;5069038;28;20050;-78
2022/03/22 01:34:10;;;;;;;;;;;9.90;99.90;;;;;;5068531;28;20023;-79
2022/03/22 01:36:35;;;;;;;;;;;9.80;99.90;;;;;;5070169;28;20369;-79
2022/03/22 01:39:02;;;;;;;;;;;9.80;99.90;;;;;;5069757;28;19948;-79
2022/03/22 01:41:27;;;;;;;;;;;9.60;99.90;;;;;;5069499;28;19943;-79
2022/03/22 01:43:53;;;;;;;;;;;9.60;99.90;;;;;;5070289;28;20442;-79
2022/03/22 01:46:20;;;;;;;;;;;9.60;99.90;;;;;;5070548;28;19912;-79
2022/03/22 01:48:46;;;;;;;;;;;9.50;99.90;;;;;;5070671;28;20328;-79
2022/03/22 01:51:11;;;;;;;;;;;9.50;99.90;;;;;;5070236;28;20008;-80
2022/03/22 01:53:38;;;;;;;;;;;9.50;99.90;;;;;;5071381;28;19913;-79
2022/03/22 01:56:03;;;;;;;;;;;9.50;99.90;;;;;;5070653;28;20002;-80
2022/03/22 01:58:29;;;;;;;;;;;9.50;99.90;;;;;;5070679;28;19940;-80
2022/03/22 02:05:51;;;;;;;;;;;9.50;99.90;;;;;;5069350;28;19963;-80
2022/03/22 02:06:31;;;;;;;;;;;9.40;99.90;;;;;;5069590;28;20000;-79
2022/03/22 02:08:57;;;;;;;;;;;9.40;99.90;;;;;;5066876;28;19939;-79
2022/03/22 02:11:22;;;;;;;;;;;9.40;99.90;;;;;;5068515;28;19916;-79
2022/03/22 02:13:48;;;;;;;;;;;9.30;99.90;;;;;;5066275;28;19908;-79
2022/03/22 02:16:13;;;;;;;;;;;9.30;99.90;;;;;;5068099;28;19916;-79
2022/03/22 02:18:40;;;;;;;;;;;9.30;99.90;;;;;;5070725;28;19908;-80
2022/03/22 02:21:06;;;;;;;;;;;9.20;99.90;;;;;;5069098;28;19921;-80
2022/03/22 02:23:51;;;;;;;;;;;9.20;99.90;;;;;;5071224;28;20297;-80
2022/03/22 02:26:17;;;;;;;;;;;9.20;99.90;;;;;;5067623;28;19920;-79
2022/03/22 02:28:43;;;;;;;;;;;9.20;99.90;;;;;;5071533;28;19912;-80
2022/03/22 02:31:09;;;;;;;;;;;9.20;99.90;;;;;;5067547;28;19913;-79
2022/03/22 02:33:34;;;;;;;;;;;9.20;99.90;;;;;;5064943;28;19916;-80
2022/03/22 02:36:00;;;;;;;;;;;9.10;99.90;;;;;;5069301;28;19961;-80
2022/03/22 02:38:26;;;;;;;;;;;9.10;99.90;;;;;;5070224;28;19916;-80
2022/03/22 02:40:51;;;;;;;;;;;9.10;99.90;;;;;;5070462;28;19916;-81
2022/03/22 02:43:17;;;;;;;;;;;9.00;99.90;;;;;;5068000;28;20050;-80
2022/03/22 02:45:43;;;;;;;;;;;9.00;99.90;;;;;;5070477;28;19931;-80
2022/03/22 02:48:11;;;;;;;;;;;9.00;99.90;;;;;;5069391;28;19916;-80
2022/03/22 02:50:36;;;;;;;;;;;9.00;99.90;;;;;;5070772;28;19913;-80
2022/03/22 02:53:02;;;;;;;;;;;9.00;99.90;;;;;;5069643;28;19962;-78
2022/03/22 02:55:27;;;;;;;;;;;8.90;99.90;;;;;;5068747;28;19916;-79
2022/03/22 02:57:52;;;;;;;;;;;8.90;99.90;;;;;;5069547;28;19909;-82
2022/03/22 03:00:18;;;;;;;;;;;8.90;99.90;;;;;;5069042;28;19912;-79
2022/03/22 03:02:45;;;;;;;;;;;8.90;99.90;;;;;;5070155;28;19966;-78
2022/03/22 03:05:11;;;;;;;;;;;8.90;99.90;;;;;;5068375;28;19956;-79
2022/03/22 03:07:36;;;;;;;;;;;8.80;99.90;;;;;;5066977;28;19963;-79
2022/03/22 03:10:03;;;;;;;;;;;8.90;99.90;;;;;;5068788;28;19913;-79
2022/03/22 03:12:29;;;;;;;;;;;8.80;99.90;;;;;;5067106;28;19912;-79
2022/03/22 03:14:54;;;;;;;;;;;8.80;99.90;;;;;;5070567;28;20417;-81
2022/03/22 03:17:19;;;;;;;;;;;8.80;99.90;;;;;;5070288;28;19912;-79
2022/03/22 03:19:45;;;;;;;;;;;8.80;99.90;;;;;;5070099;28;19920;-79
2022/03/22 03:22:10;;;;;;;;;;;8.80;99.90;;;;;;5067640;28;19977;-79
2022/03/22 03:24:36;;;;;;;;;;;8.80;99.90;;;;;;5069366;28;19917;-79
2022/03/22 03:27:01;;;;;;;;;;;8.80;99.90;;;;;;5068752;28;19919;-80
2022/03/22 03:29:27;;;;;;;;;;;8.70;99.90;;;;;;5067880;28;19920;-80
2022/03/22 03:31:53;;;;;;;;;;;8.70;99.90;;;;;;5068550;28;20284;-81
2022/03/22 03:34:18;;;;;;;;;;;8.70;99.90;;;;;;5068042;28;19921;-80
2022/03/22 03:36:44;;;;;;;;;;;8.70;99.90;;;;;;5067896;28;20340;-80
2022/03/22 03:39:10;;;;;;;;;;;8.70;99.90;;;;;;5067163;28;20335;-80
2022/03/22 03:41:55;;;;;;;;;;;8.70;99.90;;;;;;5066933;28;19970;-79
2022/03/22 03:47:07;;;;;;;;;;;8.70;99.90;;;;;;5066026;28;19938;-80
2022/03/22 03:49:42;;;;;;;;;;;8.70;99.90;;;;;;5073336;28;19912;-80
2022/03/22 03:52:09;;;;;;;;;;;8.60;99.90;;;;;;5071662;28;20373;-79
2022/03/22 03:54:35;;;;;;;;;;;8.60;99.90;;;;;;5071873;28;19955;-81
2022/03/22 03:57:01;;;;;;;;;;;8.60;99.90;;;;;;5070174;28;19944;-80
2022/03/22 03:59:26;;;;;;;;;;;8.60;99.90;;;;;;5071892;28;19966;-80
2022/03/22 04:01:52;;;;;;;;;;;8.50;99.90;;;;;;5070330;28;19916;-80
2022/03/22 04:04:18;;;;;;;;;;;8.50;99.90;;;;;;5068202;28;20305;-81
2022/03/22 04:06:44;;;;;;;;;;;8.50;99.90;;;;;;5072465;28;19913;-80
2022/03/22 04:09:09;;;;;;;;;;;8.40;99.90;;;;;;5070557;28;19912;-80
2022/03/22 04:11:35;;;;;;;;;;;8.30;99.90;;;;;;5072954;28;19917;-80
2022/03/22 04:14:00;;;;;;;;;;;8.30;99.90;;;;;;5067788;28;19916;-80
2022/03/22 04:16:25;;;;;;;;;;;8.20;99.90;;;;;;5072802;28;19924;-81
2022/03/22 04:18:51;;;;;;;;;;;8.20;99.90;;;;;;5072941;28;19912;-80
2022/03/22 04:21:16;;;;;;;;;;;8.20;99.90;;;;;;5072377;28;19948;-79
2022/03/22 04:23:42;;;;;;;;;;;8.20;99.90;;;;;;5073088;28;19912;-78
2022/03/22 04:26:07;;;;;;;;;;;8.10;99.90;;;;;;5069794;28;20494;-78
2022/03/22 04:34:01;;;;;;;;;;;8.10;99.90;;;;;;5068751;28;19919;-80
2022/03/22 04:36:28;;;;;;;;;;;8.10;99.90;;;;;;5071923;28;19912;-79
2022/03/22 04:38:54;;;;;;;;;;;8.00;99.90;;;;;;5071541;28;19912;-78
2022/03/22 04:41:20;;;;;;;;;;;8.00;99.90;;;;;;5070285;28;20348;-81
2022/03/22 04:43:46;;;;;;;;;;;8.00;99.90;;;;;;5072296;28;19913;-79
2022/03/22 04:46:11;;;;;;;;;;;8.00;99.90;;;;;;5070543;28;19965;-79
2022/03/22 04:48:36;;;;;;;;;;;7.90;99.90;;;;;;5071827;28;19974;-79
2022/03/22 04:56:48;;;;;;;;;;;7.90;99.90;;;;;;5068914;28;19919;-78
2022/03/22 04:59:15;;;;;;;;;;;7.90;99.90;;;;;;5068726;28;19951;-79
2022/03/22 05:01:42;;;;;;;;;;;7.90;99.90;;;;;;5070217;28;19923;-79
2022/03/22 05:04:11;;;;;;;;;;;7.90;99.90;;;;;;5069839;28;19920;-77
2022/03/22 05:06:39;;;;;;;;;;;7.80;99.90;;;;;;5070759;28;19913;-79
2022/03/22 05:09:05;;;;;;;;;;;7.80;99.90;;;;;;5070878;28;20303;-81
2022/03/22 05:11:31;;;;;;;;;;;7.70;99.90;;;;;;5071900;28;19912;-81
2022/03/22 05:13:57;;;;;;;;;;;7.70;99.90;;;;;;5071533;28;19923;-80
2022/03/22 05:16:24;;;;;;;;;;;7.70;99.90;;;;;;5069784;28;19939;-79
2022/03/22 05:18:50;;;;;;;;;;;7.70;99.90;;;;;;5070961;28;20011;-79
2022/03/22 05:21:17;;;;;;;;;;;7.70;99.90;;;;;;5071400;28;20396;-81
2022/03/22 05:23:42;;;;;;;;;;;7.70;99.90;;;;;;5069891;28;19939;-80
2022/03/22 05:26:08;;;;;;;;;;;7.80;99.90;;;;;;5071044;28;19913;-80
2022/03/22 05:28:34;;;;;;;;;;;7.80;99.90;;;;;;5071561;28;20489;-78
2022/03/22 05:30:59;;;;;;;;;;;7.80;99.90;;;;;;5069990;28;19912;-80
2022/03/22 05:33:25;;;;;;;;;;;7.80;99.90;;;;;;5068626;28;19931;-80
2022/03/22 05:35:51;;;;;;;;;;;7.90;99.90;;;;;;5071020;28;19912;-79
2022/03/22 05:38:16;;;;;;;;;;;7.90;99.90;;;;;;5068514;28;19912;-80
2022/03/22 05:40:41;;;;;;;;;;;8.00;99.90;;;;;;5070964;28;19912;-80
2022/03/22 05:43:07;;;;;;;;;;;8.00;99.90;;;;;;5068411;28;19966;-80
2022/03/22 05:45:33;;;;;;;;;;;8.10;99.90;;;;;;5071347;28;20018;-79
2022/03/22 05:48:01;;;;;;;;;;;8.10;99.90;;;;;;5066542;28;19999;-80
2022/03/22 05:50:27;;;;;;;;;;;8.20;99.90;;;;;;5069375;28;19916;-79
2022/03/22 05:52:53;;;;;;;;;;;8.30;99.90;;;;;;5068698;28;19913;-82
2022/03/22 05:55:18;;;;;;;;;;;8.50;99.90;;;;;;5070074;28;19912;-81
2022/03/22 05:57:44;;;;;;;;;;;8.70;99.90;;;;;;5070058;28;19920;-80
2022/03/22 06:00:10;;;;;;;;;;;8.90;99.90;;;;;;5069757;28;20391;-80
2022/03/22 06:02:37;;;;;;;;;;;9.10;99.90;;;;;;5067835;28;19931;-80
2022/03/22 06:05:11;;;;;;;;;;;9.30;99.90;;;;;;5069901;28;19947;-82
2022/03/22 06:07:37;;;;;;;;;;;9.70;99.90;;;;;;5067228;28;19912;-80
2022/03/22 06:10:03;;;;;;;;;;;10.50;99.90;;;;;;5073184;28;19912;-82
2022/03/22 06:12:39;;;;;;;;;;;11.80;99.90;;;;;;5069700;28;19912;-81
2022/03/22 06:15:25;;;;;;;;;;;12.90;99.90;;;;;;5072323;28;19924;-80
2022/03/22 06:17:56;;;;;;;;;;;13.80;99.90;;;;;;5067722;28;19919;-79
2022/03/22 06:20:25;;;;;;;;;;;14.80;99.90;;;;;;5071687;28;19913;-80
2022/03/22 06:22:51;;;;;;;;;;;15.60;99.90;;;;;;5066507;28;19958;-80
2022/03/22 06:25:17;;;;;;;;;;;16.40;99.90;;;;;;5068254;28;20357;-81
2022/03/22 06:27:43;;;;;;;;;;;17.10;99.90;;;;;;5069251;28;19912;-80
2022/03/22 06:30:09;;;;;;;;;;;17.90;99.90;;;;;;5071468;28;19912;-80
2022/03/22 06:32:41;;;;;;;;;;;18.40;99.90;;;;;;5072272;28;19920;-80
2022/03/22 06:35:07;;;;;;;;;;;19.10;99.90;;;;;;5072639;28;19924;-80
2022/03/22 06:37:34;;;;;;;;;;;19.90;99.90;;;;;;5075118;28;19931;-81
2022/03/22 06:40:00;;;;;;;;;;;20.40;99.90;;;;;;5074162;28;19912;-80
2022/03/22 06:42:25;;;;;;;;;;;21.00;99.90;;;;;;5075659;28;19959;-81
2022/03/22 06:44:51;;;;;;;;;;;21.30;99.90;;;;;;5073748;28;19993;-82
2022/03/22 06:47:17;;;;;;;;;;;21.40;99.90;;;;;;5075698;28;19908;-82
2022/03/22 06:49:43;;;;;;;;;;;21.90;99.90;;;;;;5073974;28;19912;-80
2022/03/22 06:52:12;;;;;;;;;;;22.10;99.90;;;;;;5077375;28;19999;-82
2022/03/22 06:54:38;;;;;;;;;;;22.80;99.90;;;;;;5076620;28;19978;-82
2022/03/22 06:57:05;;;;;;;;;;;22.70;99.90;;;;;;5075625;28;19913;-82
2022/03/22 06:59:30;;;;;;;;;;;23.10;99.90;;;;;;5077206;28;19908;-83
2022/03/22 07:01:55;;;;;;;;;;;23.70;99.90;;;;;;5077058;28;19927;-81
2022/03/22 07:04:21;;;;;;;;;;;23.30;99.90;;;;;;5076060;28;19959;-82
2022/03/22 07:06:47;;;;;;;;;;;24.40;99.90;;;;;;5078359;28;19908;-84
2022/03/22 07:09:12;;;;;;;;;;;24.90;99.90;;;;;;5076849;28;19920;-82
2022/03/22 07:11:50;;;;;;;;;;;25.90;99.90;;;;;;5075360;28;19923;-82
2022/03/22 07:14:19;;;;;;;;;;;26.80;99.90;;;;;;5075737;28;19917;-82
2022/03/22 07:16:47;;;;;;;;;;;27.80;99.90;;;;;;5075019;28;19912;-83
2022/03/22 07:19:20;;;;;;;;;;;28.80;99.90;;;;;;5078365;28;19923;-82
2022/03/22 07:21:46;;;;;;;;;;;29.00;99.90;;;;;;5074864;28;19916;-80
2022/03/22 07:24:11;;;;;;;;;;;29.30;99.90;;;;;;5078139;28;20116;-83
2022/03/22 07:26:37;;;;;;;;;;;29.70;99.90;;;;;;5077347;28;20280;-83
2022/03/22 07:29:03;;;;;;;;;;;30.30;99.90;;;;;;5079297;28;19913;-82
2022/03/22 07:31:37;;;;;;;;;;;30.30;99.90;;;;;;5084189;28;19927;-82
2022/03/22 07:34:06;;;;;;;;;;;30.30;99.90;;;;;;5081728;28;19912;-83
2022/03/22 07:36:32;;;;;;;;;;;30.80;99.90;;;;;;5081455;28;19991;-82
2022/03/22 07:38:58;;;;;;;;;;;30.10;99.90;;;;;;5077463;28;19921;-80
2022/03/22 07:41:23;;;;;;;;;;;30.10;99.90;;;;;;5079240;28;20392;-82
2022/03/22 07:43:49;;;;;;;;;;;31.00;99.90;;;;;;5074219;28;19927;-83
2022/03/22 07:46:14;;;;;;;;;;;31.30;99.90;;;;;;5075988;28;19919;-82
2022/03/22 07:48:40;;;;;;;;;;;31.40;99.90;;;;;;5075899;28;20342;-82
2022/03/22 07:53:49;;;;;;;;;;;32.40;99.90;;;;;;5075768;28;19920;-82
2022/03/22 07:56:14;;;;;;;;;;;32.00;99.90;;;;;;5076482;28;19920;-81
2022/03/22 07:58:41;;;;;;;;;;;32.10;99.90;;;;;;5078388;28;20008;-81
2022/03/22 08:01:06;;;;;;;;;;;31.80;99.90;;;;;;5076835;28;19917;-81
2022/03/22 08:03:32;;;;;;;;;;;31.30;99.90;;;;;;5075821;28;19936;-83
2022/03/22 08:05:59;;;;;;;;;;;31.00;99.90;;;;;;5080167;28;19920;-82
2022/03/22 08:08:25;;;;;;;;;;;31.00;99.90;;;;;;5077091;28;19924;-84
2022/03/22 08:10:50;;;;;;;;;;;31.30;99.90;;;;;;5073304;28;20356;-82
2022/03/22 08:13:16;;;;;;;;;;;32.80;99.90;;;;;;5076688;28;19912;-84
2022/03/22 08:15:42;;;;;;;;;;;33.40;99.90;;;;;;5065025;28;19920;-81
2022/03/22 08:18:10;;;;;;;;;;;32.60;99.90;;;;;;5075744;28;19912;-81
2022/03/22 08:20:36;;;;;;;;;;;32.20;99.90;;;;;;5076725;28;19959;-81
2022/03/22 08:23:04;;;;;;;;;;;31.20;99.90;;;;;;5080044;28;19913;-83
2022/03/22 08:25:30;;;;;;;;;;;31.20;99.90;;;;;;5082070;28;19913;-81
2022/03/22 08:27:57;;;;;;;;;;;30.70;99.90;;;;;;5080032;28;19912;-82
2022/03/22 08:30:23;;;;;;;;;;;31.10;99.90;;;;;;5080300;28;19917;-86
2022/03/22 08:32:49;;;;;;;;;;;31.90;99.90;;;;;;5073050;28;19924;-82
2022/03/22 08:35:15;;;;;;;;;;;32.60;99.90;;;;;;5081089;28;19969;-82
2022/03/22 08:37:40;;;;;;;;;;;33.50;99.90;;;;;;5079910;28;20308;-84
2022/03/22 08:40:06;;;;;;;;;;;33.40;99.90;;;;;;5079761;28;19934;-82
2022/03/22 08:42:32;;;;;;;;;;;33.40;99.90;;;;;;5078422;28;19912;-83
2022/03/22 08:44:59;;;;;;;;;;;34.20;99.90;;;;;;5080817;28;21685;-84
2022/03/22 08:47:26;;;;;;;;;;;35.10;99.90;;;;;;5082858;28;19920;-85
2022/03/22 08:49:52;;;;;;;;;;;35.50;99.90;;;;;;5083301;28;19913;-84
2022/03/22 08:52:17;;;;;;;;;;;35.50;99.90;;;;;;5078159;28;19923;-84
2022/03/22 08:54:43;;;;;;;;;;;35.40;99.90;;;;;;5077377;28;19939;-82
2022/03/22 08:57:08;;;;;;;;;;;36.20;99.90;;;;;;5080136;28;19912;-82
2022/03/22 08:59:34;;;;;;;;;;;36.80;99.90;;;;;;5079759;28;19920;-83
2022/03/22 09:02:01;;;;;;;;;;;36.30;99.90;;;;;;5076565;28;19927;-82
2022/03/22 09:07:11;;;;;;;;;;;36.80;99.90;;;;;;5078324;28;19920;-83
2022/03/22 09:09:37;;;;;;;;;;;37.10;99.90;;;;;;5079240;28;19912;-83
2022/03/22 09:12:02;;;;;;;;;;;37.10;99.90;;;;;;5079702;28;19968;-83
2022/03/22 09:14:29;;;;;;;;;;;37.40;99.90;;;;;;5078812;28;19935;-81
2022/03/22 09:16:54;;;;;;;;;;;37.30;99.90;;;;;;5077519;28;19917;-82
2022/03/22 09:19:20;;;;;;;;;;;36.80;99.90;;;;;;5070917;28;19962;-82
2022/03/22 09:21:45;;;;;;;;;;;35.60;99.90;;;;;;5069661;28;19912;-82
2022/03/22 09:24:11;;;;;;;;;;;34.90;99.90;;;;;;5077070;28;19963;-83
2022/03/22 09:26:36;;;;;;;;;;;34.50;99.90;;;;;;5074264;28;20005;-83
2022/03/22 09:29:02;;;;;;;;;;;34.60;99.90;;;;;;5077725;28;19916;-82
2022/03/22 09:31:28;;;;;;;;;;;34.60;99.90;;;;;;5078815;28;19912;-82
2022/03/22 09:33:54;;;;;;;;;;;32.80;99.90;;;;;;5077138;28;19932;-82
2022/03/22 09:36:19;;;;;;;;;;;32.80;99.90;;;;;;5078035;28;19959;-82
2022/03/22 09:38:46;;;;;;;;;;;33.10;99.90;;;;;;5074528;28;19923;-81
2022/03/22 09:41:15;;;;;;;;;;;33.40;99.90;;;;;;5078606;28;19978;-82
2022/03/22 09:43:44;;;;;;;;;;;33.90;99.90;;;;;;5077569;28;20420;-82
2022/03/22 09:46:10;;;;;;;;;;;33.70;99.90;;;;;;5074076;28;19920;-82
2022/03/22 09:48:36;;;;;;;;;;;34.60;99.90;;;;;;5076525;28;19913;-82
2022/03/22 09:53:47;;;;;;;;;;;34.20;99.90;;;;;;5072416;28;19955;-84
2022/03/22 09:56:12;;;;;;;;;;;34.00;99.90;;;;;;5084683;28;19912;-82
2022/03/22 09:58:38;;;;;;;;;;;34.30;99.90;;;;;;5085032;28;19917;-82
2022/03/22 10:01:03;;;;;;;;;;;33.90;99.90;;;;;;5078518;28;20376;-82
2022/03/22 10:03:28;;;;;;;;;;;34.00;99.90;;;;;;5074430;28;20397;-83
2022/03/22 10:06:01;;;;;;;;;;;34.30;99.90;;;;;;5080393;28;19966;-83
2022/03/22 10:08:27;;;;;;;;;;;34.50;99.90;;;;;;5081195;28;19913;-83
2022/03/22 10:10:53;;;;;;;;;;;35.00;99.90;;;;;;5079322;28;19966;-84
2022/03/22 10:13:19;;;;;;;;;;;35.60;99.90;;;;;;5078180;28;19919;-82
2022/03/22 10:15:45;;;;;;;;;;;34.70;99.90;;;;;;5080877;28;19916;-83
2022/03/22 10:18:10;;;;;;;;;;;33.80;99.90;;;;;;5076653;28;19932;-81
2022/03/22 10:20:39;;;;;;;;;;;33.90;99.90;;;;;;5079504;28;19912;-83
2022/03/22 10:23:06;;;;;;;;;;;33.80;99.90;;;;;;5076624;28;19958;-81
2022/03/22 10:25:32;;;;;;;;;;;34.10;99.90;;;;;;5083793;22;19959;-81
2022/03/22 10:28:02;;;;;;;;;;;34.60;99.90;;;;;;5056723;28;19917;-80
2022/03/22 10:30:27;;;;;;;;;;;35.10;99.90;;;;;;5065810;28;19913;-80
2022/03/22 10:32:53;;;;;;;;;;;35.10;99.90;;;;;;5054199;28;19917;-80
2022/03/22 10:35:20;;;;;;;;;;;35.50;99.90;;;;;;5071039;28;19912;-80
2022/03/22 10:37:53;;;;;;;;;;;35.50;99.90;;;;;;5054580;28;19913;-80
2022/03/22 10:40:29;;;;;;;;;;;35.90;99.90;;;;;;5070566;28;19920;-79
2022/03/22 10:42:57;;;;;;;;;;;36.70;99.90;;;;;;5070649;28;19974;-80
2022/03/22 10:45:23;;;;;;;;;;;36.60;99.90;;;;;;5052287;28;19913;-80
2022/03/22 10:47:48;;;;;;;;;;;36.50;99.90;;;;;;5070965;28;20015;-80
2022/03/22 10:50:13;;;;;;;;;;;36.60;99.90;;;;;;5067857;28;19924;-80
2022/03/22 10:52:48;;;;;;;;;;;36.70;99.90;;;;;;5052217;28;19920;-80
2022/03/22 10:55:19;;;;;;;;;;;36.80;99.90;;;;;;5050256;28;19917;-80
2022/03/22 10:57:49;;;;;;;;;;;36.60;99.90;;;;;;5054741;28;19913;-80
2022/03/22 11:00:15;;;;;;;;;;;36.30;99.90;;;;;;5051868;28;19935;-80
2022/03/22 11:02:41;;;;;;;;;;;36.10;99.90;;;;;;5073186;28;20010;-80
2022/03/22 11:05:07;;;;;;;;;;;35.50;99.90;;;;;;5070656;28;19921;-80
2022/03/22 11:07:34;;;;;;;;;;;34.90;99.90;;;;;;5056163;28;19926;-80
2022/03/22 11:10:00;;;;;;;;;;;34.30;99.90;;;;;;5069178;28;19912;-80
2022/03/22 11:12:27;;;;;;;;;;;34.70;99.90;;;;;;5071971;28;20319;-80
2022/03/22 11:14:54;;;;;;;;;;;33.80;99.90;;;;;;5070451;28;19913;-80
2022/03/22 11:17:21;;;;;;;;;;;32.60;99.90;;;;;;5072228;28;19920;-79
2022/03/22 11:19:49;;;;;;;;;;;32.10;99.90;;;;;;5046140;28;19913;-78
2022/03/22 11:22:16;;;;;;;;;;;31.70;99.90;;;;;;5053408;28;19920;-79
2022/03/22 11:24:42;;;;;;;;;;;32.20;99.90;;;;;;5053528;28;19955;-79
2022/03/22 11:27:10;;;;;;;;;;;32.20;99.90;;;;;;5054500;28;20392;-80
2022/03/22 11:29:37;;;;;;;;;;;31.90;99.90;;;;;;5071851;28;19920;-80
2022/03/22 11:34:50;;;;;;;;;;;31.70;99.90;;;;;;5072813;28;19920;-79
2022/03/22 11:37:27;;;;;;;;;;;31.50;99.90;;;;;;5041143;28;19909;-79
2022/03/22 11:42:37;;;;;;;;;;;31.30;99.90;;;;;;5062542;28;19971;-79
2022/03/22 11:45:07;;;;;;;;;;;32.20;99.90;;;;;;5070673;28;20319;-79
2022/03/22 11:47:40;;;;;;;;;;;32.30;99.90;;;;;;5076029;28;19999;-79
2022/03/22 11:50:17;;;;;;;;;;;32.80;99.90;;;;;;5052741;28;19912;-79
2022/03/22 11:52:43;;;;;;;;;;;33.10;99.90;;;;;;5044907;28;19920;-79
2022/03/22 11:55:09;;;;;;;;;;;33.30;99.90;;;;;;5051096;28;19961;-79
2022/03/22 11:57:49;;;;;;;;;;;34.20;99.90;;;;;;5054721;28;19913;-80
2022/03/22 12:00:15;;;;;;;;;;;33.90;99.90;;;;;;5064317;28;20450;-79
2022/03/22 12:02:43;;;;;;;;;;;33.50;99.90;;;;;;5069709;28;20039;-79
2022/03/22 12:05:08;;;;;;;;;;;32.40;99.90;;;;;;5067785;28;19913;-79
2022/03/22 12:07:36;;;;;;;;;;;32.30;99.90;;;;;;5071831;28;19966;-79
2022/03/22 12:10:15;;;;;;;;;;;32.50;99.90;;;;;;5071289;28;19920;-79
2022/03/22 12:12:43;;;;;;;;;;;32.40;99.90;;;;;;5055603;28;19951;-80
2022/03/22 12:15:09;;;;;;;;;;;32.10;99.90;;;;;;5053482;28;19913;-80
2022/03/22 12:17:36;;;;;;;;;;;31.70;99.90;;;;;;5071464;28;19912;-80
2022/03/22 12:20:03;;;;;;;;;;;31.30;99.90;;;;;;5054516;28;19920;-80
2022/03/22 12:22:29;;;;;;;;;;;31.10;99.90;;;;;;5068287;28;19966;-80
2022/03/22 12:24:59;;;;;;;;;;;31.30;99.90;;;;;;5069788;28;19969;-80
2022/03/22 12:27:24;;;;;;;;;;;31.30;99.90;;;;;;5051498;28;19913;-79
2022/03/22 12:29:52;;;;;;;;;;;31.10;99.90;;;;;;5070061;28;19924;-79
2022/03/22 12:32:18;;;;;;;;;;;31.30;99.90;;;;;;5062058;28;19912;-79
2022/03/22 12:34:44;;;;;;;;;;;31.50;99.90;;;;;;5059494;28;19995;-79
2022/03/22 12:37:11;;;;;;;;;;;32.00;99.90;;;;;;5078216;28;19913;-79
2022/03/22 12:39:37;;;;;;;;;;;32.30;99.90;;;;;;5078691;28;20491;-79
2022/03/22 12:42:04;;;;;;;;;;;31.70;99.90;;;;;;5077946;28;20351;-80
2022/03/22 12:44:30;;;;;;;;;;;31.90;99.90;;;;;;5077969;28;19919;-80
2022/03/22 12:46:55;;;;;;;;;;;31.80;99.90;;;;;;5046070;28;20276;-80
2022/03/22 12:49:21;;;;;;;;;;;31.50;99.90;;;;;;5047442;28;19996;-80
2022/03/22 12:51:47;;;;;;;;;;;31.40;99.90;;;;;;5043850;28;19987;-79
2022/03/22 12:54:17;;;;;;;;;;;31.60;99.90;;;;;;5064991;28;20399;-78
2022/03/22 12:56:46;;;;;;;;;;;31.10;99.90;;;;;;5062232;28;19913;-79
2022/03/22 12:59:19;;;;;;;;;;;30.40;99.90;;;;;;5069074;28;19991;-79
2022/03/22 13:01:44;;;;;;;;;;;29.90;99.90;;;;;;5075603;28;19917;-79
2022/03/22 13:04:09;;;;;;;;;;;30.20;99.90;;;;;;5053703;28;20015;-79
2022/03/22 13:06:36;;;;;;;;;;;30.10;99.90;;;;;;5069841;28;19915;-79
2022/03/22 13:11:45;;;;;;;;;;;30.00;99.90;;;;;;5077480;28;20011;-79
2022/03/22 13:16:56;;;;;;;;;;;29.00;99.90;;;;;;5057228;28;20340;-79
2022/03/22 13:19:22;;;;;;;;;;;28.60;99.90;;;;;;5069096;28;19908;-79
2022/03/22 13:21:47;;;;;;;;;;;28.50;99.90;;;;;;5074564;28;19913;-79
2022/03/22 13:24:20;;;;;;;;;;;28.30;99.90;;;;;;5067307;28;19916;-79
2022/03/22 13:26:52;;;;;;;;;;;28.30;99.90;;;;;;5067608;28;19909;-79
2022/03/22 13:29:19;;;;;;;;;;;28.50;99.90;;;;;;5044789;28;19913;-78
2022/03/22 13:31:56;;;;;;;;;;;28.30;99.90;;;;;;5039700;28;19963;-79
2022/03/22 13:34:23;;;;;;;;;;;28.10;99.90;;;;;;5056507;28;20343;-79
2022/03/22 13:36:49;;;;;;;;;;;27.60;99.90;;;;;;5063545;28;19916;-79
2022/03/22 13:39:24;;;;;;;;;;;27.30;99.90;;;;;;5039344;28;19916;-79
2022/03/22 13:41:49;;;;;;;;;;;27.20;99.90;;;;;;5047898;28;19916;-79
2022/03/22 13:44:28;;;;;;;;;;;27.20;99.90;;;;;;5073570;28;20387;-79
2022/03/22 13:46:54;;;;;;;;;;;27.10;99.90;;;;;;5053051;28;19927;-79
2022/03/22 13:49:20;;;;;;;;;;;26.90;99.90;;;;;;5067972;28;19908;-79
2022/03/22 13:51:45;;;;;;;;;;;26.70;99.90;;;;;;5054184;28;20020;-79
2022/03/22 13:54:14;;;;;;;;;;;26.30;99.90;;;;;;5051859;28;19908;-79
2022/03/22 13:56:40;;;;;;;;;;;26.30;99.90;;;;;;5075141;28;19916;-79
2022/03/22 13:59:11;;;;;;;;;;;26.60;99.90;;;;;;5065261;28;19974;-79
2022/03/22 14:01:37;;;;;;;;;;;26.20;99.90;;;;;;5060972;28;20399;-79
2022/03/22 14:04:03;;;;;;;;;;;26.10;99.90;;;;;;5072140;28;19908;-78
2022/03/22 14:06:28;;;;;;;;;;;26.60;99.90;;;;;;5051945;28;19913;-79
2022/03/22 14:08:54;;;;;;;;;;;26.30;99.90;;;;;;5044978;28;19996;-79
2022/03/22 14:11:20;;;;;;;;;;;26.40;99.90;;;;;;5064502;28;20343;-79
2022/03/22 14:13:45;;;;;;;;;;;26.30;99.90;;;;;;5045763;28;19916;-79
2022/03/22 14:16:11;;;;;;;;;;;25.70;99.90;;;;;;5061464;28;19912;-79
2022/03/22 14:18:36;;;;;;;;;;;25.90;99.90;;;;;;5061144;28;19909;-79
2022/03/22 14:21:02;;;;;;;;;;;25.60;99.90;;;;;;5065504;28;20353;-79
2022/03/22 14:23:27;;;;;;;;;;;25.30;99.90;;;;;;5051683;28;20332;-78
2022/03/22 14:25:56;;;;;;;;;;;25.10;99.90;;;;;;5039438;28;19920;-79
2022/03/22 14:28:25;;;;;;;;;;;25.20;99.90;;;;;;5070065;28;19943;-79
2022/03/22 14:30:53;;;;;;;;;;;25.50;99.90;;;;;;5074870;28;19921;-79
2022/03/22 14:33:18;;;;;;;;;;;25.30;99.90;;;;;;5048186;28;20280;-79
2022/03/22 14:35:53;;;;;;;;;;;25.70;99.90;;;;;;5070946;28;19917;-79
2022/03/22 14:38:20;;;;;;;;;;;25.10;99.90;;;;;;5071619;28;19916;-79
2022/03/22 14:40:47;;;;;;;;;;;24.90;99.90;;;;;;5071287;28;19920;-79
2022/03/22 14:43:12;;;;;;;;;;;25.00;99.90;;;;;;5047879;28;19917;-79
2022/03/22 14:45:39;;;;;;;;;;;24.70;99.90;;;;;;5070984;28;20396;-79
2022/03/22 14:48:04;;;;;;;;;;;24.90;99.90;;;;;;5053950;28;19909;-79
2022/03/22 14:50:31;;;;;;;;;;;24.90;99.90;;;;;;5074997;28;19913;-78
2022/03/22 14:55:41;;;;;;;;;;;24.80;99.90;;;;;;5070219;28;19923;-79
2022/03/22 15:00:53;;;;;;;;;;;24.70;99.90;;;;;;5067060;28;19962;-79